createdAt,value
2022-11-23T00:02:31.505Z,9.99
2022-11-23T00:12:35.865Z,9.91
2022-11-23T00:22:38.916Z,9.88
2022-11-23T00:32:43.440Z,9.86
2022-11-23T00:42:46.483Z,9.85
2022-11-23T00:52:50.884Z,9.96
2022-11-23T01:02:54.039Z,9.94
2022-11-23T01:23:40.196Z,9.99
2022-11-23T01:33:44.347Z,9.93
2022-11-23T01:43:50.241Z,10.03
2022-11-23T01:53:59.047Z,10.03
2022-11-23T02:04:04.511Z,10.05
2022-11-23T02:14:09.373Z,10.02
2022-11-23T02:24:26.996Z,9.99
2022-11-23T02:34:39.990Z,10.02
2022-11-23T02:44:52.418Z,10.07
2022-11-23T02:55:00.166Z,10.02
2022-11-23T03:05:10.120Z,9.99
2022-11-23T03:15:15.412Z,9.98
2022-11-23T03:25:24.374Z,9.82
2022-11-23T03:35:35.447Z,9.87
2022-11-23T03:46:11.284Z,9.90
2022-11-23T03:56:17.609Z,9.85
2022-11-23T04:06:23.613Z,9.68
2022-11-23T04:16:42.337Z,9.79
2022-11-23T04:26:46.070Z,9.81
2022-11-23T04:36:52.466Z,9.76
2022-11-23T04:47:06.858Z,9.74
2022-11-23T05:09:01.412Z,9.63
2022-11-23T05:19:25.052Z,9.68
2022-11-23T05:29:29.439Z,9.73
2022-11-23T05:39:41.059Z,9.65
2022-11-23T05:49:49.083Z,9.63
2022-11-23T05:59:59.463Z,9.70
2022-11-23T06:10:16.049Z,9.79
2022-11-23T06:20:28.977Z,9.81
2022-11-23T06:30:40.545Z,9.90
2022-11-23T06:40:49.059Z,9.87
2022-11-23T06:50:55.343Z,9.89
2022-11-23T07:01:03.495Z,9.78
2022-11-23T07:11:13.095Z,9.79
2022-11-23T07:21:19.351Z,9.59
2022-11-23T07:31:30.940Z,9.49
2022-11-23T07:41:38.332Z,9.58
2022-11-23T07:51:48.945Z,9.70
2022-11-23T08:03:04.268Z,9.57
2022-11-23T08:13:20.333Z,9.75
2022-11-23T08:23:23.454Z,9.76
2022-11-23T08:33:28.316Z,9.69
2022-11-23T08:43:31.378Z,9.80
2022-11-23T08:53:35.827Z,9.82
2022-11-23T09:03:39.231Z,9.90
2022-11-23T09:13:43.596Z,9.80
2022-11-23T09:23:46.615Z,9.87
2022-11-23T09:33:53.515Z,9.97
2022-11-23T09:44:03.512Z,10.07
2022-11-23T09:54:15.995Z,10.12
2022-11-23T10:04:21.145Z,10.03
2022-11-23T10:14:45.914Z,10.15
2022-11-23T10:24:52.658Z,10.21
2022-11-23T10:35:03.677Z,10.25
2022-11-23T10:45:08.066Z,10.49
2022-11-23T10:55:16.945Z,10.53
2022-11-23T11:06:01.075Z,10.54
2022-11-23T11:15:57.745Z,10.57
2022-11-23T11:26:11.270Z,10.71
2022-11-23T11:36:18.891Z,10.57
2022-11-23T11:46:29.428Z,10.71
2022-11-23T11:56:39.202Z,10.61
2022-11-23T12:06:47.390Z,10.79
2022-11-23T12:17:31.556Z,11.11
2022-11-23T12:27:37.210Z,11.23
2022-11-23T12:37:50.548Z,11.08
2022-11-23T12:48:04.252Z,10.96
2022-11-23T12:58:17.053Z,11.14
2022-11-23T13:08:34.617Z,11.16
2022-11-23T13:18:51.476Z,11.41
2022-11-23T13:28:56.897Z,11.25
2022-11-23T13:39:03.169Z,11.21
2022-11-23T13:49:30.875Z,11.19
2022-11-23T13:59:35.815Z,11.13
2022-11-23T14:09:46.696Z,11.17
2022-11-23T14:20:11.240Z,11.01
2022-11-23T14:30:23.920Z,11.01
2022-11-23T14:40:31.862Z,10.85
2022-11-23T14:50:35.769Z,10.96
2022-11-23T15:00:43.496Z,10.93
2022-11-23T15:10:53.197Z,10.91
2022-11-23T15:20:59.784Z,10.76
2022-11-23T15:31:02.845Z,10.82
2022-11-23T15:41:07.591Z,10.80
2022-11-23T15:51:26.135Z,10.70
2022-11-23T16:01:31.231Z,10.49
2022-11-23T16:11:36.377Z,10.33
2022-11-23T16:21:46.053Z,10.17
2022-11-23T16:31:54.848Z,10.37
2022-11-23T16:41:59.316Z,9.99
2022-11-23T16:52:02.334Z,9.66
2022-11-23T17:02:13.563Z,9.53
2022-11-23T17:12:18.854Z,9.63
2022-11-23T17:22:23.625Z,9.53
2022-11-23T17:32:26.758Z,9.53
2022-11-23T17:42:31.108Z,9.61
2022-11-23T17:52:34.686Z,9.61
2022-11-23T18:02:39.081Z,9.46
2022-11-23T18:12:42.164Z,9.49
2022-11-23T18:22:46.463Z,9.46
2022-11-23T18:32:49.439Z,9.34
2022-11-23T18:42:53.980Z,9.44
2022-11-23T18:52:57.041Z,9.40
2022-11-23T19:03:03.218Z,9.30
2022-11-23T19:13:07.009Z,9.30
2022-11-23T19:23:12.827Z,9.27
2022-11-23T19:33:15.945Z,9.23
2022-11-23T19:43:20.322Z,9.30
2022-11-23T19:53:25.780Z,9.26
2022-11-23T20:03:35.969Z,9.11
2022-11-23T20:13:39.550Z,9.00
2022-11-23T20:23:44.991Z,9.04
2022-11-23T20:33:50.304Z,9.04
2022-11-23T20:43:56.792Z,9.11
2022-11-23T20:53:59.980Z,9.23
2022-11-23T21:04:04.168Z,9.14
2022-11-23T21:14:14.054Z,9.17
2022-11-23T21:24:22.311Z,9.17
2022-11-23T21:34:26.622Z,9.16
2022-11-23T21:44:31.295Z,9.03
2022-11-23T21:54:34.706Z,9.22
2022-11-23T22:04:39.622Z,9.25
2022-11-23T22:14:42.961Z,9.31
2022-11-23T22:24:47.751Z,9.45
2022-11-23T22:34:50.962Z,9.45
2022-11-23T22:44:55.246Z,9.41
2022-11-23T22:54:58.460Z,9.37
2022-11-23T23:05:03.028Z,9.38
2022-11-23T23:15:08.384Z,9.30
2022-11-23T23:25:12.465Z,9.24
2022-11-23T23:35:15.568Z,9.25
2022-11-23T23:45:20.014Z,9.29
2022-11-23T23:55:23.172Z,9.31
